Navasota, TX (77868)

8:22 PM CDT on May 28, 2015 (GMT -0500)
Navasota | | Change Station
CLOSE
Current Station
Personal Weather Station
Location: Navasota, TX
Elevation: 302 ft
Nearby Weather Stations
Active Advisory: Flood Warning

Elev 302 ft 30.40 °N, 96.07 °W | Updated 24 seconds ago

Partly Cloudy
Partly Cloudy
81.7 °F
Feels Like 90 °F
N
1.3
Wind Variable Wind from ENE
Gusts 4.9 mph

Today
High -- | Low -- °F
--% Chance of Precip.
Yesterday
High -- | Low -- °F
Precip. -- in
6:24 AM 8:19 PM
Waxing Gibbous, 80% visible
Pressure 29.93 in
Visibility 10.0 miles
Clouds Scattered Clouds 3100 ft
Scattered Clouds 3800 ft
Heat Index 90 °F
Dew Point 78 °F
Humidity 88%
Rainfall 0.00 in
Snow Depth Not available.
UV 0.0 out of 12
Pollen 5.40 out of 12
Air Quality Not available.
Flu Activity Sporadic
METAR K11R 290115Z AUTO 16009G15KT 10SM SCT031 SCT038 29/23 A2993 RMK AO2 T02880233

More Conditions Fewer Conditions

Pressure 29.93 in
Visibility 10.0 miles
Clouds Scattered Clouds 3100 ft
Scattered Clouds 3800 ft
Heat Index 90 °F
Dew Point 78 °F
Humidity 88%
Rainfall 0.00 in
Snow Depth Not available.
UV 0.0 out of 12
Pollen 5.40 out of 12
Air Quality Not available.
Flu Activity Sporadic
METAR K11R 290115Z AUTO 16009G15KT 10SM SCT031 SCT038 29/23 A2993 RMK AO2 T02880233

More Conditions Fewer Conditions

10-Day Weather Forecast

Almanac

Astronomy

May. 28, 2015 Rise Set
Actual Time
Civil Twilight
Nautical Twilight
Astronomical Twilight
Moon
Length of Visible Light
Length of Day
Tomorrow will be .
, % of the Moon is Illuminated

Today's Extremes

State Highs State Lows

Community

WunderPhotos

Upload Photos

1,825,109 photos uploaded!

WunderBlogs® & News

Nearby

Air Quality

  Air Quality AQ Index Pollutant
Not available.

Snow Depth

Station Depth Elevation

Earthquake Activity

City Distance Mag. Time & Date
Minimum magnitude displayed is 2.5.

Coastal Water Temperatures

Place Temperature

Stations

Nearby Weather Stations

Station Location Temp. Windchill Dew Point Humidity Wind Precip. Elev Updated Type
                   
Flood Warning
Statement as of 3:27 PM CDT on May 28, 2015

The Flood Warning continues for
the Navasota river near Normangee...
* until Sunday evening... or until the warning is canceled.
* At 0300 PM Thursday... the stage was 19.6 feet.
* Moderate flooding is occurring and moderate flooding is forecast.
* Flood stage is 15.0 feet.
* Forecast... the river is near its crest and will begin falling later today...
remaining above moderate flood level the next 12 to 24 hours.
* At 20.0 feet... major lowland flooding begins with massive inundation of the
flood plain as the river is close to 2 miles wide and old Spanish Road
becomes inundated one half mile on the right bank and 1.5 miles on the left bank.


Lat... Lon 3111 9622 3097 9619 3087 9614 3087 9624 3097 9629 3111 9633

                     flood observed forecast 12 PM
location stage stage day time Fri Sat sun Mon

Navasota river
Normangee 15 19.6 Thu 03 PM 17.4 15.7 14.8 14.5